sensor_id;sensor_type;location;lat;lon;timestamp;temperature;humidity
27506;DHT22;14939;43.596;1.320;2024-02-21T00:01:42;6.10;1.00
27506;DHT22;14939;43.596;1.320;2024-02-21T00:04:08;6.10;1.00
27506;DHT22;14939;43.596;1.320;2024-02-21T00:06:34;6.10;1.00
27506;DHT22;14939;43.596;1.320;2024-02-21T00:08:59;6.20;1.00
27506;DHT22;14939;43.596;1.320;2024-02-21T00:11:25;6.10;1.00
27506;DHT22;14939;43.596;1.320;2024-02-21T00:13:50;6.10;1.00
27506;DHT22;14939;43.596;1.320;2024-02-21T00:16:16;6.00;1.00
27506;DHT22;14939;43.596;1.320;2024-02-21T00:18:43;6.00;9.60
27506;DHT22;14939;43.596;1.320;2024-02-21T00:21:08;6.10;1.00
27506;DHT22;14939;43.596;1.320;2024-02-21T00:23:34;6.10;1.00
27506;DHT22;14939;43.596;1.320;2024-02-21T00:26:00;6.10;1.00
27506;DHT22;14939;43.596;1.320;2024-02-21T00:28:25;6.10;1.00
27506;DHT22;14939;43.596;1.320;2024-02-21T00:30:51;6.10;1.00
27506;DHT22;14939;43.596;1.320;2024-02-21T00:33:19;6.10;1.00
27506;DHT22;14939;43.596;1.320;2024-02-21T00:35:44;6.10;1.00
27506;DHT22;14939;43.596;1.320;2024-02-21T00:38:10;6.00;1.00
27506;DHT22;14939;43.596;1.320;2024-02-21T00:40:36;6.00;1.00
27506;DHT22;14939;43.596;1.320;2024-02-21T00:43:02;6.10;1.00
27506;DHT22;14939;43.596;1.320;2024-02-21T00:45:28;6.20;1.00
27506;DHT22;14939;43.596;1.320;2024-02-21T00:47:53;6.20;1.00
27506;DHT22;14939;43.596;1.320;2024-02-21T00:50:19;6.20;1.00
27506;DHT22;14939;43.596;1.320;2024-02-21T00:52:45;6.20;1.00
27506;DHT22;14939;43.596;1.320;2024-02-21T00:55:10;6.20;1.00
27506;DHT22;14939;43.596;1.320;2024-02-21T00:57:36;6.20;1.00
27506;DHT22;14939;43.596;1.320;2024-02-21T01:00:03;6.20;1.00
27506;DHT22;14939;43.596;1.320;2024-02-21T01:02:29;6.20;1.00
27506;DHT22;14939;43.596;1.320;2024-02-21T01:04:57;6.20;1.00
27506;DHT22;14939;43.596;1.320;2024-02-21T01:07:23;6.10;1.00
27506;DHT22;14939;43.596;1.320;2024-02-21T01:09:48;6.10;1.00
27506;DHT22;14939;43.596;1.320;2024-02-21T01:12:16;6.10;1.00
27506;DHT22;14939;43.596;1.320;2024-02-21T01:14:42;6.10;1.00
27506;DHT22;14939;43.596;1.320;2024-02-21T01:17:07;6.10;1.00
27506;DHT22;14939;43.596;1.320;2024-02-21T01:19:33;6.10;1.00
27506;DHT22;14939;43.596;1.320;2024-02-21T01:21:59;6.10;1.00
27506;DHT22;14939;43.596;1.320;2024-02-21T01:24:24;6.10;1.00
27506;DHT22;14939;43.596;1.320;2024-02-21T01:26:50;6.10;1.00
27506;DHT22;14939;43.596;1.320;2024-02-21T01:29:16;6.10;1.00
27506;DHT22;14939;43.596;1.320;2024-02-21T01:31:41;6.10;1.60
27506;DHT22;14939;43.596;1.320;2024-02-21T01:34:07;6.10;1.50
27506;DHT22;14939;43.596;1.320;2024-02-21T01:36:33;6.10;1.90
27506;DHT22;14939;43.596;1.320;2024-02-21T01:38:59;6.00;2.70
27506;DHT22;14939;43.596;1.320;2024-02-21T01:41:25;6.00;2.90
27506;DHT22;14939;43.596;1.320;2024-02-21T01:43:50;6.00;2.50
27506;DHT22;14939;43.596;1.320;2024-02-21T01:46:16;6.00;1.00
27506;DHT22;14939;43.596;1.320;2024-02-21T01:48:42;5.90;1.00
27506;DHT22;14939;43.596;1.320;2024-02-21T01:51:08;5.90;1.00
27506;DHT22;14939;43.596;1.320;2024-02-21T01:53:36;5.90;1.00
27506;DHT22;14939;43.596;1.320;2024-02-21T01:56:03;5.90;1.00
27506;DHT22;14939;43.596;1.320;2024-02-21T01:58:31;5.90;1.00
27506;DHT22;14939;43.596;1.320;2024-02-21T02:00:57;5.80;1.00
27506;DHT22;14939;43.596;1.320;2024-02-21T02:03:23;5.80;1.00
27506;DHT22;14939;43.596;1.320;2024-02-21T02:05:51;5.70;1.00
27506;DHT22;14939;43.596;1.320;2024-02-21T02:08:19;5.70;5.60
27506;DHT22;14939;43.596;1.320;2024-02-21T02:10:45;5.70;1.00
27506;DHT22;14939;43.596;1.320;2024-02-21T02:13:11;5.70;1.00
27506;DHT22;14939;43.596;1.320;2024-02-21T02:15:43;5.70;1.00
27506;DHT22;14939;43.596;1.320;2024-02-21T02:18:09;5.60;5.20
27506;DHT22;14939;43.596;1.320;2024-02-21T02:20:36;5.50;1.00
27506;DHT22;14939;43.596;1.320;2024-02-21T02:23:11;5.60;1.70
27506;DHT22;14939;43.596;1.320;2024-02-21T02:25:38;5.60;1.10
27506;DHT22;14939;43.596;1.320;2024-02-21T02:28:06;5.60;2.30
27506;DHT22;14939;43.596;1.320;2024-02-21T02:30:32;5.50;1.40
27506;DHT22;14939;43.596;1.320;2024-02-21T02:32:59;5.50;1.10
27506;DHT22;14939;43.596;1.320;2024-02-21T02:35:25;5.50;1.80
27506;DHT22;14939;43.596;1.320;2024-02-21T02:37:51;5.50;1.90
27506;DHT22;14939;43.596;1.320;2024-02-21T02:40:17;5.40;3.10
27506;DHT22;14939;43.596;1.320;2024-02-21T02:42:43;5.40;2.50
27506;DHT22;14939;43.596;1.320;2024-02-21T02:45:10;5.30;4.50
27506;DHT22;14939;43.596;1.320;2024-02-21T02:47:35;5.30;8.30
27506;DHT22;14939;43.596;1.320;2024-02-21T02:50:02;5.20;5.20
27506;DHT22;14939;43.596;1.320;2024-02-21T02:52:27;5.10;4.70
27506;DHT22;14939;43.596;1.320;2024-02-21T02:54:53;5.00;5.00
27506;DHT22;14939;43.596;1.320;2024-02-21T02:57:21;4.90;7.40
27506;DHT22;14939;43.596;1.320;2024-02-21T02:59:53;4.90;7.00
27506;DHT22;14939;43.596;1.320;2024-02-21T03:02:18;4.80;4.90
27506;DHT22;14939;43.596;1.320;2024-02-21T03:04:44;4.70;6.80
27506;DHT22;14939;43.596;1.320;2024-02-21T03:07:10;4.70;9.50
27506;DHT22;14939;43.596;1.320;2024-02-21T03:09:39;4.60;13.50
27506;DHT22;14939;43.596;1.320;2024-02-21T03:12:06;4.60;7.90
27506;DHT22;14939;43.596;1.320;2024-02-21T03:14:32;4.60;7.50
27506;DHT22;14939;43.596;1.320;2024-02-21T03:16:58;4.50;6.20
27506;DHT22;14939;43.596;1.320;2024-02-21T03:19:25;4.50;7.30
27506;DHT22;14939;43.596;1.320;2024-02-21T03:21:51;4.40;8.40
27506;DHT22;14939;43.596;1.320;2024-02-21T03:24:17;4.40;6.70
27506;DHT22;14939;43.596;1.320;2024-02-21T03:26:43;4.40;6.60
27506;DHT22;14939;43.596;1.320;2024-02-21T03:29:10;4.30;7.80
27506;DHT22;14939;43.596;1.320;2024-02-21T03:31:37;4.30;10.60
27506;DHT22;14939;43.596;1.320;2024-02-21T03:34:03;4.30;7.20
27506;DHT22;14939;43.596;1.320;2024-02-21T03:36:28;4.30;7.80
27506;DHT22;14939;43.596;1.320;2024-02-21T03:38:55;4.30;5.30
27506;DHT22;14939;43.596;1.320;2024-02-21T03:41:21;4.30;5.90
27506;DHT22;14939;43.596;1.320;2024-02-21T03:43:47;4.30;6.00
27506;DHT22;14939;43.596;1.320;2024-02-21T03:46:12;4.30;6.70
27506;DHT22;14939;43.596;1.320;2024-02-21T03:48:38;4.30;8.00
27506;DHT22;14939;43.596;1.320;2024-02-21T03:51:04;4.30;12.70
27506;DHT22;14939;43.596;1.320;2024-02-21T03:53:30;4.30;8.90
27506;DHT22;14939;43.596;1.320;2024-02-21T03:55:56;4.30;6.80
27506;DHT22;14939;43.596;1.320;2024-02-21T03:58:22;4.30;5.00
27506;DHT22;14939;43.596;1.320;2024-02-21T04:00:48;4.30;9.00
27506;DHT22;14939;43.596;1.320;2024-02-21T04:03:13;4.20;8.30
27506;DHT22;14939;43.596;1.320;2024-02-21T04:05:39;4.20;10.90
27506;DHT22;14939;43.596;1.320;2024-02-21T04:08:05;4.10;11.80
27506;DHT22;14939;43.596;1.320;2024-02-21T04:10:31;4.10;14.60
27506;DHT22;14939;43.596;1.320;2024-02-21T04:12:57;4.10;9.40
27506;DHT22;14939;43.596;1.320;2024-02-21T04:15:22;4.00;13.90
27506;DHT22;14939;43.596;1.320;2024-02-21T04:17:48;3.90;11.90
27506;DHT22;14939;43.596;1.320;2024-02-21T04:20:16;3.90;10.70
27506;DHT22;14939;43.596;1.320;2024-02-21T04:22:44;3.80;17.90
27506;DHT22;14939;43.596;1.320;2024-02-21T04:25:10;3.80;13.00
27506;DHT22;14939;43.596;1.320;2024-02-21T04:27:37;3.80;14.80
27506;DHT22;14939;43.596;1.320;2024-02-21T04:30:03;3.80;7.80
27506;DHT22;14939;43.596;1.320;2024-02-21T04:32:29;3.80;14.50
27506;DHT22;14939;43.596;1.320;2024-02-21T04:34:55;3.80;9.50
27506;DHT22;14939;43.596;1.320;2024-02-21T04:37:20;3.80;6.50
27506;DHT22;14939;43.596;1.320;2024-02-21T04:39:47;3.70;9.10
27506;DHT22;14939;43.596;1.320;2024-02-21T04:42:13;3.70;11.40
27506;DHT22;14939;43.596;1.320;2024-02-21T04:44:39;3.70;9.00
27506;DHT22;14939;43.596;1.320;2024-02-21T04:47:04;3.70;4.60
27506;DHT22;14939;43.596;1.320;2024-02-21T04:49:30;3.70;2.40
27506;DHT22;14939;43.596;1.320;2024-02-21T04:51:56;3.70;5.40
27506;DHT22;14939;43.596;1.320;2024-02-21T04:54:21;3.70;5.40
27506;DHT22;14939;43.596;1.320;2024-02-21T04:56:47;3.60;6.10
27506;DHT22;14939;43.596;1.320;2024-02-21T04:59:12;3.60;5.80
27506;DHT22;14939;43.596;1.320;2024-02-21T05:01:38;3.60;13.00
27506;DHT22;14939;43.596;1.320;2024-02-21T05:04:04;3.60;8.10
27506;DHT22;14939;43.596;1.320;2024-02-21T05:06:29;3.60;12.60
27506;DHT22;14939;43.596;1.320;2024-02-21T05:08:55;3.60;7.00
27506;DHT22;14939;43.596;1.320;2024-02-21T05:11:23;3.60;6.10
27506;DHT22;14939;43.596;1.320;2024-02-21T05:13:49;3.60;10.30
27506;DHT22;14939;43.596;1.320;2024-02-21T05:16:14;3.60;7.30
27506;DHT22;14939;43.596;1.320;2024-02-21T05:18:40;3.60;8.80
27506;DHT22;14939;43.596;1.320;2024-02-21T05:21:06;3.60;6.10
27506;DHT22;14939;43.596;1.320;2024-02-21T05:23:32;3.70;10.60
27506;DHT22;14939;43.596;1.320;2024-02-21T05:25:57;3.80;5.80
27506;DHT22;14939;43.596;1.320;2024-02-21T05:28:23;3.70;7.90
27506;DHT22;14939;43.596;1.320;2024-02-21T05:30:48;3.70;10.10
27506;DHT22;14939;43.596;1.320;2024-02-21T05:33:14;3.70;9.20
27506;DHT22;14939;43.596;1.320;2024-02-21T05:35:47;3.80;11.10
27506;DHT22;14939;43.596;1.320;2024-02-21T05:38:13;3.80;9.20
27506;DHT22;14939;43.596;1.320;2024-02-21T05:40:39;3.90;9.60
27506;DHT22;14939;43.596;1.320;2024-02-21T05:43:04;3.90;10.00
27506;DHT22;14939;43.596;1.320;2024-02-21T05:45:30;3.90;11.00
27506;DHT22;14939;43.596;1.320;2024-02-21T05:47:56;3.90;12.10
27506;DHT22;14939;43.596;1.320;2024-02-21T05:50:22;3.80;16.10
27506;DHT22;14939;43.596;1.320;2024-02-21T05:52:51;3.80;12.00
27506;DHT22;14939;43.596;1.320;2024-02-21T05:55:17;3.90;9.10
27506;DHT22;14939;43.596;1.320;2024-02-21T05:57:42;3.90;12.00
27506;DHT22;14939;43.596;1.320;2024-02-21T06:00:08;3.90;13.80
27506;DHT22;14939;43.596;1.320;2024-02-21T06:02:34;3.90;15.70
27506;DHT22;14939;43.596;1.320;2024-02-21T06:05:00;3.80;11.60
27506;DHT22;14939;43.596;1.320;2024-02-21T06:07:25;3.80;10.50
27506;DHT22;14939;43.596;1.320;2024-02-21T06:09:51;3.80;17.00
27506;DHT22;14939;43.596;1.320;2024-02-21T06:12:17;3.70;17.30
27506;DHT22;14939;43.596;1.320;2024-02-21T06:14:42;3.70;12.20
27506;DHT22;14939;43.596;1.320;2024-02-21T06:17:08;3.70;11.70
27506;DHT22;14939;43.596;1.320;2024-02-21T06:19:33;3.80;11.30
27506;DHT22;14939;43.596;1.320;2024-02-21T06:21:59;3.80;16.70
27506;DHT22;14939;43.596;1.320;2024-02-21T06:24:25;3.80;18.10
27506;DHT22;14939;43.596;1.320;2024-02-21T06:26:50;3.80;18.50
27506;DHT22;14939;43.596;1.320;2024-02-21T06:29:16;3.80;13.10
27506;DHT22;14939;43.596;1.320;2024-02-21T06:31:41;3.80;19.50
27506;DHT22;14939;43.596;1.320;2024-02-21T06:34:07;3.80;19.80
27506;DHT22;14939;43.596;1.320;2024-02-21T06:36:33;3.90;13.20
27506;DHT22;14939;43.596;1.320;2024-02-21T06:38:58;3.90;18.30
27506;DHT22;14939;43.596;1.320;2024-02-21T06:41:24;4.00;20.80
27506;DHT22;14939;43.596;1.320;2024-02-21T06:43:50;4.10;11.60
27506;DHT22;14939;43.596;1.320;2024-02-21T06:46:26;4.10;14.80
27506;DHT22;14939;43.596;1.320;2024-02-21T06:48:54;4.10;14.40
27506;DHT22;14939;43.596;1.320;2024-02-21T06:51:19;4.20;20.00
27506;DHT22;14939;43.596;1.320;2024-02-21T06:53:45;4.20;21.50
27506;DHT22;14939;43.596;1.320;2024-02-21T06:56:11;4.20;23.40
27506;DHT22;14939;43.596;1.320;2024-02-21T06:58:36;4.30;18.20
27506;DHT22;14939;43.596;1.320;2024-02-21T07:01:02;4.20;15.40
27506;DHT22;14939;43.596;1.320;2024-02-21T07:03:27;4.20;21.00
27506;DHT22;14939;43.596;1.320;2024-02-21T07:05:53;4.20;22.30
27506;DHT22;14939;43.596;1.320;2024-02-21T07:08:19;4.20;18.80
27506;DHT22;14939;43.596;1.320;2024-02-21T07:10:44;4.30;14.80
27506;DHT22;14939;43.596;1.320;2024-02-21T07:13:10;4.40;20.50
27506;DHT22;14939;43.596;1.320;2024-02-21T07:15:35;4.50;14.10
27506;DHT22;14939;43.596;1.320;2024-02-21T07:18:02;4.60;19.80
27506;DHT22;14939;43.596;1.320;2024-02-21T07:20:28;4.60;18.30
27506;DHT22;14939;43.596;1.320;2024-02-21T07:22:54;4.60;17.90
27506;DHT22;14939;43.596;1.320;2024-02-21T07:25:19;4.60;17.90
27506;DHT22;14939;43.596;1.320;2024-02-21T07:27:45;4.60;19.60
27506;DHT22;14939;43.596;1.320;2024-02-21T07:30:11;4.70;20.00
27506;DHT22;14939;43.596;1.320;2024-02-21T07:32:37;4.70;24.90
27506;DHT22;14939;43.596;1.320;2024-02-21T07:35:03;4.70;26.40
27506;DHT22;14939;43.596;1.320;2024-02-21T07:37:28;4.80;32.70
27506;DHT22;14939;43.596;1.320;2024-02-21T07:39:54;4.90;27.30
27506;DHT22;14939;43.596;1.320;2024-02-21T07:42:19;4.90;27.70
27506;DHT22;14939;43.596;1.320;2024-02-21T07:44:45;5.00;28.00
27506;DHT22;14939;43.596;1.320;2024-02-21T07:47:11;5.00;29.90
27506;DHT22;14939;43.596;1.320;2024-02-21T07:49:44;5.20;26.00
27506;DHT22;14939;43.596;1.320;2024-02-21T07:52:11;5.30;24.70
27506;DHT22;14939;43.596;1.320;2024-02-21T07:54:36;5.30;26.60
27506;DHT22;14939;43.596;1.320;2024-02-21T07:57:02;5.40;31.00
27506;DHT22;14939;43.596;1.320;2024-02-21T07:59:29;5.40;24.00
27506;DHT22;14939;43.596;1.320;2024-02-21T08:01:58;5.50;23.00
27506;DHT22;14939;43.596;1.320;2024-02-21T08:04:24;5.50;22.70
27506;DHT22;14939;43.596;1.320;2024-02-21T08:06:53;5.60;21.60
27506;DHT22;14939;43.596;1.320;2024-02-21T08:09:21;5.60;21.70
27506;DHT22;14939;43.596;1.320;2024-02-21T08:11:47;5.70;21.70
27506;DHT22;14939;43.596;1.320;2024-02-21T08:14:13;5.70;22.10
27506;DHT22;14939;43.596;1.320;2024-02-21T08:16:44;5.80;22.00
27506;DHT22;14939;43.596;1.320;2024-02-21T08:19:10;5.80;26.50
27506;DHT22;14939;43.596;1.320;2024-02-21T08:21:36;5.80;21.90
27506;DHT22;14939;43.596;1.320;2024-02-21T08:24:02;5.80;21.00
27506;DHT22;14939;43.596;1.320;2024-02-21T08:26:27;5.80;20.00
27506;DHT22;14939;43.596;1.320;2024-02-21T08:28:56;5.90;19.30
27506;DHT22;14939;43.596;1.320;2024-02-21T08:31:24;5.90;18.70
27506;DHT22;14939;43.596;1.320;2024-02-21T08:33:53;5.80;18.40
27506;DHT22;14939;43.596;1.320;2024-02-21T08:36:19;5.70;19.30
27506;DHT22;14939;43.596;1.320;2024-02-21T08:38:45;5.70;17.60
27506;DHT22;14939;43.596;1.320;2024-02-21T08:41:11;5.80;21.20
27506;DHT22;14939;43.596;1.320;2024-02-21T08:43:37;5.90;18.20
27506;DHT22;14939;43.596;1.320;2024-02-21T08:46:04;6.00;17.20
27506;DHT22;14939;43.596;1.320;2024-02-21T08:48:30;6.10;15.40
27506;DHT22;14939;43.596;1.320;2024-02-21T08:50:55;6.30;15.70
27506;DHT22;14939;43.596;1.320;2024-02-21T08:53:21;6.40;13.20
27506;DHT22;14939;43.596;1.320;2024-02-21T08:55:47;6.50;13.90
27506;DHT22;14939;43.596;1.320;2024-02-21T08:58:12;6.60;12.80
27506;DHT22;14939;43.596;1.320;2024-02-21T09:00:40;6.70;11.60
27506;DHT22;14939;43.596;1.320;2024-02-21T09:03:05;6.70;9.60
27506;DHT22;14939;43.596;1.320;2024-02-21T09:05:31;6.80;10.30
27506;DHT22;14939;43.596;1.320;2024-02-21T09:07:57;6.90;9.30
27506;DHT22;14939;43.596;1.320;2024-02-21T09:10:22;7.00;7.60
27506;DHT22;14939;43.596;1.320;2024-02-21T09:12:48;7.20;5.90
27506;DHT22;14939;43.596;1.320;2024-02-21T09:15:14;7.30;4.40
27506;DHT22;14939;43.596;1.320;2024-02-21T09:17:39;7.70;2.80
27506;DHT22;14939;43.596;1.320;2024-02-21T09:20:06;8.00;2.50
27506;DHT22;14939;43.596;1.320;2024-02-21T09:22:33;8.30;1.00
27506;DHT22;14939;43.596;1.320;2024-02-21T09:25:00;8.50;1.00
27506;DHT22;14939;43.596;1.320;2024-02-21T09:27:26;8.60;1.00
27506;DHT22;14939;43.596;1.320;2024-02-21T09:29:52;8.70;1.00
27506;DHT22;14939;43.596;1.320;2024-02-21T09:32:18;8.80;1.00
27506;DHT22;14939;43.596;1.320;2024-02-21T09:34:44;8.90;1.00
27506;DHT22;14939;43.596;1.320;2024-02-21T09:37:10;9.00;1.00
27506;DHT22;14939;43.596;1.320;2024-02-21T09:39:36;9.00;1.00
27506;DHT22;14939;43.596;1.320;2024-02-21T09:42:11;9.10;1.00
27506;DHT22;14939;43.596;1.320;2024-02-21T09:44:37;9.20;1.00
27506;DHT22;14939;43.596;1.320;2024-02-21T09:47:22;9.40;1.00
27506;DHT22;14939;43.596;1.320;2024-02-21T09:49:49;9.50;1.00
27506;DHT22;14939;43.596;1.320;2024-02-21T09:52:19;9.70;1.00
27506;DHT22;14939;43.596;1.320;2024-02-21T09:54:44;9.80;1.00
27506;DHT22;14939;43.596;1.320;2024-02-21T09:57:10;10.00;1.00
27506;DHT22;14939;43.596;1.320;2024-02-21T09:59:37;10.10;1.00
27506;DHT22;14939;43.596;1.320;2024-02-21T10:02:03;10.10;1.00
27506;DHT22;14939;43.596;1.320;2024-02-21T10:04:30;10.20;1.00
27506;DHT22;14939;43.596;1.320;2024-02-21T10:06:56;10.20;1.00
27506;DHT22;14939;43.596;1.320;2024-02-21T10:09:26;10.20;1.00
27506;DHT22;14939;43.596;1.320;2024-02-21T10:12:21;10.20;1.00
27506;DHT22;14939;43.596;1.320;2024-02-21T10:14:46;10.20;1.00
27506;DHT22;14939;43.596;1.320;2024-02-21T10:17:16;10.50;1.00
27506;DHT22;14939;43.596;1.320;2024-02-21T10:19:43;10.70;1.00
27506;DHT22;14939;43.596;1.320;2024-02-21T10:22:09;11.00;1.00
27506;DHT22;14939;43.596;1.320;2024-02-21T10:24:36;11.30;1.00
27506;DHT22;14939;43.596;1.320;2024-02-21T10:27:04;11.70;1.00
27506;DHT22;14939;43.596;1.320;2024-02-21T10:29:34;12.00;1.00
27506;DHT22;14939;43.596;1.320;2024-02-21T10:32:13;12.30;1.00
27506;DHT22;14939;43.596;1.320;2024-02-21T10:34:40;12.50;1.00
27506;DHT22;14939;43.596;1.320;2024-02-21T10:37:07;12.60;1.00
27506;DHT22;14939;43.596;1.320;2024-02-21T10:39:40;12.80;1.00
27506;DHT22;14939;43.596;1.320;2024-02-21T10:42:06;12.80;1.00
27506;DHT22;14939;43.596;1.320;2024-02-21T10:44:36;12.90;1.00
27506;DHT22;14939;43.596;1.320;2024-02-21T10:47:09;12.90;1.00
27506;DHT22;14939;43.596;1.320;2024-02-21T10:49:39;13.10;1.00
27506;DHT22;14939;43.596;1.320;2024-02-21T10:57:13;13.30;1.00
27506;DHT22;14939;43.596;1.320;2024-02-21T10:59:39;13.40;1.00
27506;DHT22;14939;43.596;1.320;2024-02-21T11:02:05;13.60;1.00
27506;DHT22;14939;43.596;1.320;2024-02-21T11:04:32;13.80;1.00
27506;DHT22;14939;43.596;1.320;2024-02-21T11:07:02;13.80;1.00
27506;DHT22;14939;43.596;1.320;2024-02-21T11:09:32;13.80;1.00
27506;DHT22;14939;43.596;1.320;2024-02-21T11:11:58;13.90;1.00
27506;DHT22;14939;43.596;1.320;2024-02-21T11:14:27;13.90;1.00
27506;DHT22;14939;43.596;1.320;2024-02-21T11:16:53;14.00;1.00
27506;DHT22;14939;43.596;1.320;2024-02-21T11:19:19;14.10;1.00
27506;DHT22;14939;43.596;1.320;2024-02-21T11:21:45;14.20;1.00
27506;DHT22;14939;43.596;1.320;2024-02-21T11:24:11;14.20;1.00
27506;DHT22;14939;43.596;1.320;2024-02-21T11:26:40;14.20;1.00
27506;DHT22;14939;43.596;1.320;2024-02-21T11:29:09;14.20;1.00
27506;DHT22;14939;43.596;1.320;2024-02-21T11:31:44;14.30;1.00
27506;DHT22;14939;43.596;1.320;2024-02-21T11:34:11;14.30;1.00
27506;DHT22;14939;43.596;1.320;2024-02-21T11:36:51;14.30;1.00
27506;DHT22;14939;43.596;1.320;2024-02-21T11:39:24;14.50;1.00
27506;DHT22;14939;43.596;1.320;2024-02-21T11:42:06;14.60;1.00
27506;DHT22;14939;43.596;1.320;2024-02-21T11:44:35;14.70;1.00
27506;DHT22;14939;43.596;1.320;2024-02-21T11:47:00;14.70;1.00
27506;DHT22;14939;43.596;1.320;2024-02-21T11:49:28;14.80;1.00
27506;DHT22;14939;43.596;1.320;2024-02-21T11:52:02;15.00;1.00
27506;DHT22;14939;43.596;1.320;2024-02-21T11:54:30;15.10;1.00
27506;DHT22;14939;43.596;1.320;2024-02-21T11:56:56;15.20;1.00
27506;DHT22;14939;43.596;1.320;2024-02-21T11:59:22;15.30;1.00
27506;DHT22;14939;43.596;1.320;2024-02-21T12:01:49;15.40;1.00
27506;DHT22;14939;43.596;1.320;2024-02-21T12:04:15;15.50;1.00
27506;DHT22;14939;43.596;1.320;2024-02-21T12:06:44;15.60;1.00
27506;DHT22;14939;43.596;1.320;2024-02-21T12:09:09;15.70;1.00
27506;DHT22;14939;43.596;1.320;2024-02-21T12:11:39;15.70;1.00
27506;DHT22;14939;43.596;1.320;2024-02-21T12:14:04;15.90;1.00
27506;DHT22;14939;43.596;1.320;2024-02-21T12:16:34;15.90;1.00
27506;DHT22;14939;43.596;1.320;2024-02-21T12:19:00;16.00;1.00
27506;DHT22;14939;43.596;1.320;2024-02-21T12:21:33;16.00;1.00
27506;DHT22;14939;43.596;1.320;2024-02-21T12:26:40;16.10;1.00
27506;DHT22;14939;43.596;1.320;2024-02-21T12:29:06;16.10;1.00
27506;DHT22;14939;43.596;1.320;2024-02-21T12:31:35;16.10;1.00
27506;DHT22;14939;43.596;1.320;2024-02-21T12:34:01;16.20;1.00
27506;DHT22;14939;43.596;1.320;2024-02-21T12:36:27;16.20;1.00
27506;DHT22;14939;43.596;1.320;2024-02-21T12:38:52;16.20;1.00
27506;DHT22;14939;43.596;1.320;2024-02-21T12:41:18;16.40;1.00
27506;DHT22;14939;43.596;1.320;2024-02-21T12:43:43;16.40;1.00
27506;DHT22;14939;43.596;1.320;2024-02-21T12:46:09;16.40;1.00
27506;DHT22;14939;43.596;1.320;2024-02-21T12:48:35;16.40;1.00
27506;DHT22;14939;43.596;1.320;2024-02-21T12:51:00;16.50;1.00
27506;DHT22;14939;43.596;1.320;2024-02-21T12:53:26;16.50;1.00
27506;DHT22;14939;43.596;1.320;2024-02-21T12:55:52;16.40;1.00
27506;DHT22;14939;43.596;1.320;2024-02-21T12:58:17;16.50;1.00
27506;DHT22;14939;43.596;1.320;2024-02-21T13:00:43;16.50;1.00
27506;DHT22;14939;43.596;1.320;2024-02-21T13:03:09;16.40;1.00
27506;DHT22;14939;43.596;1.320;2024-02-21T13:05:38;16.60;1.00
27506;DHT22;14939;43.596;1.320;2024-02-21T13:08:05;16.60;1.00
27506;DHT22;14939;43.596;1.320;2024-02-21T13:10:31;16.70;1.00
27506;DHT22;14939;43.596;1.320;2024-02-21T13:12:56;16.80;1.00
27506;DHT22;14939;43.596;1.320;2024-02-21T13:15:22;16.90;1.00
27506;DHT22;14939;43.596;1.320;2024-02-21T13:17:48;17.00;1.00
27506;DHT22;14939;43.596;1.320;2024-02-21T13:20:13;17.10;1.00
27506;DHT22;14939;43.596;1.320;2024-02-21T13:22:39;17.20;1.00
27506;DHT22;14939;43.596;1.320;2024-02-21T13:25:05;17.20;1.00
27506;DHT22;14939;43.596;1.320;2024-02-21T13:27:33;17.20;1.00
27506;DHT22;14939;43.596;1.320;2024-02-21T13:29:58;17.20;1.00
27506;DHT22;14939;43.596;1.320;2024-02-21T13:32:25;17.20;1.00
27506;DHT22;14939;43.596;1.320;2024-02-21T13:34:51;17.20;1.00
27506;DHT22;14939;43.596;1.320;2024-02-21T13:37:18;17.20;1.00
27506;DHT22;14939;43.596;1.320;2024-02-21T13:39:43;17.30;1.00
27506;DHT22;14939;43.596;1.320;2024-02-21T13:42:09;17.30;1.00
27506;DHT22;14939;43.596;1.320;2024-02-21T13:44:35;17.40;1.00
27506;DHT22;14939;43.596;1.320;2024-02-21T13:47:02;17.50;1.00
27506;DHT22;14939;43.596;1.320;2024-02-21T13:49:27;17.40;1.00
27506;DHT22;14939;43.596;1.320;2024-02-21T13:51:54;17.20;1.00
27506;DHT22;14939;43.596;1.320;2024-02-21T13:54:19;17.20;1.00
27506;DHT22;14939;43.596;1.320;2024-02-21T13:56:46;17.10;1.00
27506;DHT22;14939;43.596;1.320;2024-02-21T13:59:12;17.20;1.00
27506;DHT22;14939;43.596;1.320;2024-02-21T14:01:41;17.20;1.00
27506;DHT22;14939;43.596;1.320;2024-02-21T14:04:08;17.20;1.00
27506;DHT22;14939;43.596;1.320;2024-02-21T14:06:34;17.20;1.00
27506;DHT22;14939;43.596;1.320;2024-02-21T14:09:00;17.20;1.00
27506;DHT22;14939;43.596;1.320;2024-02-21T14:11:26;17.20;1.00
27506;DHT22;14939;43.596;1.320;2024-02-21T14:13:52;17.30;1.00
27506;DHT22;14939;43.596;1.320;2024-02-21T14:16:18;17.30;1.00
27506;DHT22;14939;43.596;1.320;2024-02-21T14:18:44;17.20;1.00
27506;DHT22;14939;43.596;1.320;2024-02-21T14:21:10;17.20;1.00
27506;DHT22;14939;43.596;1.320;2024-02-21T14:23:39;17.20;1.00
27506;DHT22;14939;43.596;1.320;2024-02-21T14:26:05;17.20;1.00
27506;DHT22;14939;43.596;1.320;2024-02-21T14:28:32;17.20;1.00
27506;DHT22;14939;43.596;1.320;2024-02-21T14:30:59;17.30;1.00
27506;DHT22;14939;43.596;1.320;2024-02-21T14:33:26;17.40;1.00
27506;DHT22;14939;43.596;1.320;2024-02-21T14:35:52;17.40;1.00
27506;DHT22;14939;43.596;1.320;2024-02-21T14:38:19;17.40;1.00
27506;DHT22;14939;43.596;1.320;2024-02-21T14:40:45;17.30;1.00
27506;DHT22;14939;43.596;1.320;2024-02-21T14:43:11;17.20;1.00
27506;DHT22;14939;43.596;1.320;2024-02-21T14:45:36;17.20;1.00
27506;DHT22;14939;43.596;1.320;2024-02-21T14:48:04;17.20;1.00
27506;DHT22;14939;43.596;1.320;2024-02-21T14:50:30;17.10;1.00
27506;DHT22;14939;43.596;1.320;2024-02-21T14:52:55;17.10;1.00
27506;DHT22;14939;43.596;1.320;2024-02-21T14:55:21;17.00;1.00
27506;DHT22;14939;43.596;1.320;2024-02-21T14:57:47;17.00;1.00
27506;DHT22;14939;43.596;1.320;2024-02-21T15:00:13;17.10;1.00
27506;DHT22;14939;43.596;1.320;2024-02-21T15:02:38;17.10;1.00
27506;DHT22;14939;43.596;1.320;2024-02-21T15:05:05;17.10;1.00
27506;DHT22;14939;43.596;1.320;2024-02-21T15:07:32;17.10;1.00
27506;DHT22;14939;43.596;1.320;2024-02-21T15:09:57;17.10;1.00
27506;DHT22;14939;43.596;1.320;2024-02-21T15:12:23;17.10;1.00
27506;DHT22;14939;43.596;1.320;2024-02-21T15:14:49;17.10;1.00
27506;DHT22;14939;43.596;1.320;2024-02-21T15:17:15;17.10;1.00
27506;DHT22;14939;43.596;1.320;2024-02-21T15:19:41;17.10;1.00
27506;DHT22;14939;43.596;1.320;2024-02-21T15:22:13;17.00;1.00
27506;DHT22;14939;43.596;1.320;2024-02-21T15:24:41;16.80;1.00
27506;DHT22;14939;43.596;1.320;2024-02-21T15:27:08;16.70;1.00
27506;DHT22;14939;43.596;1.320;2024-02-21T15:29:34;16.70;1.00
27506;DHT22;14939;43.596;1.320;2024-02-21T15:32:01;16.60;1.00
27506;DHT22;14939;43.596;1.320;2024-02-21T15:34:27;16.40;1.00
27506;DHT22;14939;43.596;1.320;2024-02-21T15:36:53;16.40;1.00
27506;DHT22;14939;43.596;1.320;2024-02-21T15:39:19;16.30;1.00
27506;DHT22;14939;43.596;1.320;2024-02-21T15:41:44;16.30;1.00
27506;DHT22;14939;43.596;1.320;2024-02-21T15:44:10;16.20;1.00
27506;DHT22;14939;43.596;1.320;2024-02-21T15:46:36;16.10;1.00
27506;DHT22;14939;43.596;1.320;2024-02-21T15:49:03;16.10;1.00
27506;DHT22;14939;43.596;1.320;2024-02-21T15:51:28;16.00;1.00
27506;DHT22;14939;43.596;1.320;2024-02-21T15:53:58;15.90;1.00
27506;DHT22;14939;43.596;1.320;2024-02-21T15:56:24;15.90;1.00